x

Buoy B01 - Western Maine Shelf (44030) Wave Buoy

10:04 - Sat 29th Aug 2015 All times are EDT. -4 hours from GMT.

  • Sig Wave height 2.3ft
  • Peak Period 11s
  • Wind
    4mph, 7mph gusts
  • Sea Temp 68°f
  • Air Temp 68°f
  • Sea Pressure 1021.2mb
  • Buoy B01 - Western Maine Shelf
  • Buoy B01 - Western Maine Shelf

More Historic Weather Station data

Upgrade to MSW Pro to gain access to the past 30 days of data for over 8000 Wavebouys and Weather Stations around the globe.

Join Pro

Comparision Forecast

View Surf forecast
   
sam. 08/29 10:04 2.5ft 11s 4 7 mph 1021.2mb 68f 68f
9:04 3ft 8s 4
mph
1020.7mb 68f 65f
8:04 2.5ft 11s 4 7 mph 1020.8mb 68f 65f
7:04 2.5ft 11s 7
mph
1020.9mb 68f 65f
6:04 3ft 11s 7 9 mph 1020.2mb 67f 64f
5:04 3ft 11s 7
mph
1020mb 67f 65f
4:04 3ft 11s 7
mph
1019.7mb 68f 65f
3:04 3.5ft 11s 7 9 mph 1019.6mb 67f 65f
2:04 3.5ft 11s 9
mph
1019.9mb 67f 66f
1:04 2.5ft 11s 11
mph
1019.9mb 68f 67f
12:04 3.5ft 11s 11 13 mph 1019.7mb 68f 67f
ven. 08/28 11:04 3ft 11s 11 13 mph 1019.6mb 68f 67f
10:04 3ft 11s 13 16 mph 1019.5mb 68f 68f
9:04 3.5ft 11s 13 16 mph 1019.4mb 69f 68f
8:04 3.5ft 11s 13 16 mph 1018.9mb 69f 68f
7:04 3.5ft 11s 16 18 mph 1018.4mb 69f 69f
6:04 3.5ft 11s 13 16 mph 1018.2mb 69f 69f
5:04 4ft 11s 16 18 mph 1018.3mb 69f 69f
4:04 3.5ft 11s 16 18 mph 1018.4mb 69f 69f
3:04 3ft 11s 11 13 mph 1018.9mb 69f 69f
2:04 3ft 11s 11 13 mph 1019.2mb 69f 68f
1:04 2.5ft 11s 9
mph
1019.4mb 69f 68f
12:04 2.5ft 11s 4 7 mph 1019.6mb 69f 67f
11:04 2.5ft 11s 2
mph
1019.9mb 68f 68f
10:04 2.5ft 11s 4
mph
1019.5mb 68f 66f
9:04 2.5ft 11s 7
mph
1019.6mb 68f 64f
8:04 2.5ft 11s 7
mph
1019.4mb 67f 64f
7:04 2.5ft 11s 4
mph
1019mb 67f 66f
6:04 3ft 11s 7 9 mph 1018.1mb 67f 64f
5:04 2.5ft 11s 7 9 mph 1018mb 67f 64f
4:04 3ft 11s 9
mph
1017.8mb 68f 64f
3:04 2.5ft 11s 11 13 mph 1017.3mb 68f 65f
2:04 2.5ft 11s 9 11 mph 1016.9mb 68f 65f
12:04 3ft 11s 11 13 mph 1016.7mb 69f 66f
jeu. 08/27 11:04 3ft 11s 13 16 mph 1016.2mb 69f 68f
10:04 2.5ft 11s 11 13 mph 1015.9mb 69f 68f
9:04 2.5ft 11s 11 13 mph 1015.6mb 69f 69f
8:04 3ft 11s 7
mph
1015mb 69f 70f
7:04 2.5ft 11s 7 9 mph 1014.3mb 69f 71f
6:04  -   -  9
mph
1013.8mb 69f 72f
5:04 2.5ft 11s 11 16 mph 1013.3mb 70f 73f
4:04 2.5ft 11s 9
mph
1013.3mb 69f 70f
3:04 2.5ft 11s 11 13 mph 1013.3mb 69f 69f
2:04 2.5ft 11s 11 13 mph 1013.6mb 70f 69f
1:04 2.5ft 8s 9
mph
1013.8mb 70f 69f
12:04 2.5ft 8s 7 9 mph 1014mb 69f 69f
11:04 3ft 6s 2
mph
1014.2mb 69f 68f
10:04 3ft 8s 4 7 mph 1014mb 68f 67f
9:04 3ft 8s 9 11 mph 1013.8mb 68f 66f
8:04 2.5ft 6s 7 9 mph 1013.3mb 68f 66f
7:04 2.5ft 8s 9 11 mph 1013.2mb 68f 67f
6:04 2.5ft 6s 7 9 mph 1012.7mb 68f 67f
5:04 2.5ft 5s 9 11 mph 1012.2mb 68f 66f
4:04 2.5ft 6s 9 11 mph 1011.9mb 68f 67f
3:04 2.5ft 8s 9 11 mph 1012.2mb 68f 67f
2:04 3ft 11s 9 11 mph 1012.2mb 67f 66f
1:04 2.5ft 8s 11
mph
1012.4mb 69f 67f
12:04 2.5ft 11s 9
mph
1012.3mb 68f 68f
mer. 08/26 11:04 2.5ft 6s 9
mph
1011.8mb 69f 69f
10:04 2.5ft 6s 4 7 mph 1011.5mb 70f 69f
9:04 2.5ft 6s 7 9 mph 1011.3mb 70f 69f
8:04 2.5ft 6s 4 7 mph 1010.8mb 69f 69f
7:04 2.5ft 8s 7
mph
1010.5mb 69f 69f
6:04 2.5ft 8s 7
mph
1010.3mb 70f 70f
5:04 2.5ft 8s 9 11 mph 1010.1mb 69f 70f
4:04 2.5ft 8s 9 11 mph 1010.4mb 68f 69f
3:04 2.5ft 8s 7
mph
1010.9mb 70f 70f
2:04 3ft 11s 9 11 mph 1011.1mb 70f 69f
1:04 2.5ft 11s 9 11 mph 1011.5mb 70f 70f
12:04 3ft 11s 7
mph
1011.7mb 69f 70f
11:04 3ft 5s 2 4 mph 1011.6mb 68f 71f
10:04 3ft 11s 2 4 mph 1011.3mb 68f 69f
9:04 3ft 11s 2 4 mph 1011.3mb 68f 68f
8:04 3.5ft 8s 2 4 mph 1010.9mb 68f 68f
7:04 3.5ft 8s  -  2 mph 1010.8mb 68f 68f
6:04 3.5ft 11s 2
mph
1010.6mb 68f 68f
5:04 3.5ft 8s 2
mph
1010.3mb 68f 68f
4:04 3.5ft 8s 2 4 mph 1010.2mb 68f 68f
3:04 3.5ft 5s 7
mph
1010.3mb 68f 69f
2:04 3.5ft 5s 7 9 mph 1010.6mb 68f 68f
1:04 3.5ft 8s 9 11 mph 1010.5mb 68f 69f
12:04 3.5ft 8s 9 11 mph 1010.7mb 68f 69f
mar. 08/25 11:04 4ft 5s 11 13 mph 1010.9mb 68f 68f
10:04 3ft 5s 13 16 mph 1010.9mb 68f 68f
9:04 4ft 8s 16 18 mph 1010.5mb 69f 69f
8:04 3.5ft 8s 16 20 mph 1011mb 69f 69f
7:04 3.5ft 8s 16 18 mph 1010.2mb 69f 69f
6:04 3.5ft 8s 9 11 mph 1010.8mb 69f 69f
5:04 4ft 8s 11 13 mph 1010.7mb 69f 69f
4:04 3ft 8s 11 13 mph 1011.3mb 69f 69f